Cincinnati, OH

8:21 AM EST on February 12, 2016 (GMT -0500)
Mt Adams | | Change Station
CLOSE
Current Station
Personal Weather Station
Location: Cincinnati, OH
Elevation: 797 ft
Nearby Weather Stations

Elev 797 ft 39.11 °N, 84.50 °W | Updated 17 seconds ago

Overcast
Overcast
21.0 °F
Feels Like 21 °F
N
2.7
Wind Variable Wind from West
Gusts 7.3 mph

Today
High -- | Low -- °F
--% Chance of Precip.
Yesterday
High -- | Low -- °F
Precip. -- in
Pressure 30.24 in
Visibility 10.0 miles
Clouds Overcast 6500 ft
Windchill 21 °F
Dew Point 12 °F
Humidity 67%
Rainfall 0.00 in
Snow Depth Not available.
7:33 AM 6:11 PM
Waxing Crescent, 20% visible
METAR KLUK 121253Z 00000KT 10SM OVC065 M07/M11 A3021 RMK AO2 SLP238 T10721106
Pressure 30.24 in
Visibility 10.0 miles
Clouds Overcast 6500 ft
Windchill 21 °F
Dew Point 12 °F
Humidity 67%
Rainfall 0.00 in
Snow Depth Not available.
7:33 AM 6:11 PM
Waxing Crescent, 20% visible
METAR KLUK 121253Z 00000KT 10SM OVC065 M07/M11 A3021 RMK AO2 SLP238 T10721106

10-Day Weather Forecast

Almanac

Astronomy

Feb. 12, 2016 Rise Set
Actual Time
Civil Twilight
Nautical Twilight
Astronomical Twilight
Moon
Length of Visible Light
Length of Day
Tomorrow will be .
, % of the Moon is Illuminated

Today's Extremes

State Highs State Lows

Community

WunderPhotos

Upload Photos

1,892,309 photos uploaded!

WunderBlog® & News

Nearby

Air Quality

  Air Quality AQ Index Pollutant
Not available.

Snow Depth

Station Depth Elevation

Earthquake Activity

City Distance Mag. Time & Date
Minimum magnitude displayed is 2.5.

Coastal Water Temperatures

Place Temperature

Stations

Nearby Weather Stations

Station Location Temp. Windchill Dew Point Humidity Wind Precip. Elev Updated Type
                   

Watches & Warnings

There are currently no watches in effect.